| time (UTC) | temp F | wind direction | speed MPH | gust MPH | rain 1hr in | rain 24hr in | rain mn in | humidity % | barometer mb |
| 20260510092240 | 46 | 243 | 4.0 | 11.0 | 0.00 | 0.14 | 0.01 | 78 | 1006.9 |
| 20260510085240 | 46 | 248 | 2.0 | 9.0 | 0.00 | 0.14 | 0.01 | 85 | 1006.8 |
| 20260510082239 | 46 | 193 | 3.0 | 8.0 | 0.01 | 0.14 | 0.01 | 90 | 1006.6 |
| 20260510075240 | 47 | 208 | 1.0 | 5.0 | 0.01 | 0.14 | 0.01 | 92 | 1006.4 |
| 20260510072243 | 47 | 186 | 2.0 | 5.0 | 0.00 | 0.13 | 0.00 | 93 | 1006.2 |
| 20260510065239 | 47 | 200 | 2.0 | 6.0 | 0.00 | 0.13 | 0.00 | 93 | 1005.7 |
| 20260510062235 | 47 | 199 | 2.0 | 5.0 | 0.00 | 0.13 | 0.00 | 92 | 1005.6 |
| 20260510055235 | 48 | 194 | 2.0 | 8.0 | 0.00 | 0.13 | 0.00 | 91 | 1005.6 |
| 20260510052236 | 48 | 178 | 3.0 | 6.0 | 0.00 | 0.13 | 0.00 | 92 | 1005.2 |
| 20260510045236 | 48 | 177 | 2.0 | 10.0 | 0.00 | 0.13 | 0.00 | 92 | 1005.1 |
| 20260510042233 | 49 | 190 | 2.0 | 8.0 | 0.00 | 0.13 | 0.00 | 91 | 1004.6 |
| 20260510040617 | 50 | 212 | 2.0 | 8.0 | 0.00 | 0.13 | 0.13 | 90 | 1004.0 |
| 20260510032231 | 51 | 189 | 4.0 | 11.0 | 0.00 | 0.13 | 0.13 | 89 | 1003.4 |
| 20260510025236 | 51 | 214 | 4.0 | 10.0 | 0.00 | 0.13 | 0.13 | 89 | 1003.6 |
| 20260510022229 | 52 | 197 | 2.0 | 10.0 | 0.13 | 0.13 | 0.13 | 89 | 1003.2 |
| 20260510020624 | 54 | 160 | 4.0 | 13.0 | 0.13 | 0.13 | 0.13 | 86 | 1003.3 |
| 20260510012229 | 57 | 201 | 4.0 | 11.0 | 0.00 | 0.00 | 0.00 | 76 | 1002.5 |
| 20260510005229 | 57 | 160 | 5.0 | 10.0 | 0.00 | 0.00 | 0.00 | 75 | 1002.2 |
| 20260510002225 | 57 | 155 | 3.0 | 10.0 | 0.00 | 0.00 | 0.00 | 73 | 1002.3 |
| 20260509235225 | 58 | 146 | 4.0 | 9.0 | 0.00 | 0.00 | 0.00 | 71 | 1002.4 |
| 20260509232223 | 58 | 158 | 3.0 | 7.0 | 0.00 | 0.00 | 0.00 | 70 | 1003.2 |
| 20260509225221 | 59 | 139 | 4.0 | 10.0 | 0.00 | 0.00 | 0.00 | 67 | 1003.4 |
| 20260509222221 | 60 | 165 | 4.0 | 10.0 | 0.00 | 0.00 | 0.00 | 62 | 1003.5 |
| 20260509215221 | 61 | 193 | 6.0 | 12.0 | 0.00 | 0.00 | 0.00 | 58 | 1003.3 |
| 20260509212222 | 61 | 168 | 6.0 | 12.0 | 0.00 | 0.00 | 0.00 | 54 | 1003.2 |
| 20260509205219 | 62 | 154 | 6.0 | 15.0 | 0.00 | 0.00 | 0.00 | 52 | 1003.5 |
| 20260509202219 | 63 | 220 | 5.0 | 15.0 | 0.00 | 0.00 | 0.00 | 51 | 1003.6 |
| 20260509195218 | 63 | 222 | 7.0 | 17.0 | 0.00 | 0.00 | 0.00 | 52 | 1004.3 |
| 20260509192219 | 62 | 179 | 8.0 | 16.0 | 0.00 | 0.00 | 0.00 | 52 | 1004.4 |
| 20260509185217 | 63 | 162 | 7.0 | 16.0 | 0.00 | 0.00 | 0.00 | 55 | 1004.6 |
| 20260509182217 | 63 | 174 | 7.0 | 16.0 | 0.00 | 0.00 | 0.00 | 48 | 1004.9 |
| 20260509175217 | 62 | 140 | 6.0 | 17.0 | 0.00 | 0.00 | 0.00 | 48 | 1005.4 |
| 20260509172220 | 62 | 158 | 5.0 | 16.0 | 0.00 | 0.00 | 0.00 | 50 | 1005.6 |
| 20260509170611 | 62 | 168 | 5.0 | 13.0 | 0.00 | 0.00 | 0.00 | 43 | 1006.0 |
| 20260509162217 | 61 | 141 | 6.0 | 12.0 | 0.00 | 0.00 | 0.00 | 44 | 1006.6 |
| 20260509155217 | 60 | 137 | 5.0 | 13.0 | 0.00 | 0.00 | 0.00 | 46 | 1007.0 |
| 20260509153608 | 60 | 137 | 6.0 | 13.0 | 0.00 | 0.00 | 0.00 | 47 | 1007.5 |
| 20260509145216 | 60 | 169 | 5.0 | 10.0 | 0.00 | 0.00 | 0.00 | 49 | 1007.8 |
| 20260509142214 | 57 | 171 | 4.0 | 10.0 | 0.00 | 0.00 | 0.00 | 52 | 1008.1 |
| 20260509135214 | 55 | 148 | 5.0 | 11.0 | 0.00 | 0.00 | 0.00 | 53 | 1008.2 |
| 20260509132214 | 52 | 147 | 6.0 | 11.0 | 0.00 | 0.00 | 0.00 | 59 | 1008.4 |
| 20260509130634 | 50 | 134 | 3.0 | 6.0 | 0.00 | 0.00 | 0.00 | 63 | 1008.6 |
| 20260509122214 | 47 | 137 | 2.0 | 4.0 | 0.00 | 0.00 | 0.00 | 72 | 1008.8 |
| 20260509115214 | 44 | 131 | 0.0 | 1.0 | 0.00 | 0.00 | 0.00 | 76 | 1009.0 |
| 20260509112214 | 44 | 153 | 0.0 | 1.0 | 0.00 | 0.00 | 0.00 | 78 | 1008.9 |
| 20260509110555 | 40 | 132 | 0.0 | 1.0 | 0.00 | 0.00 | 0.00 | 82 | 1008.8 |
| 20260509102212 | 37 | 152 | 0.0 | 0.0 | 0.00 | 0.00 | 0.00 | 87 | 1008.6 |
| 20260509095212 | 35 | 151 | 0.0 | 0.0 | 0.00 | 0.00 | 0.00 | 87 | 1008.6 |